createdAt,value
2023-02-15T00:00:39.347Z,40.65
2023-02-15T00:03:12.826Z,41.58
2023-02-15T00:05:46.342Z,37.08
2023-02-15T00:08:19.835Z,36.08
2023-02-15T00:10:54.967Z,35.50
2023-02-15T00:13:28.414Z,37.85
2023-02-15T00:16:06.271Z,37.63
2023-02-15T00:18:40.589Z,42.47
2023-02-15T00:21:13.989Z,42.05
2023-02-15T00:23:47.486Z,37.97
2023-02-15T00:26:22.372Z,44.22
2023-02-15T00:28:57.060Z,42.05
2023-02-15T00:31:33.958Z,40.00
2023-02-15T00:34:13.147Z,36.28
2023-02-15T00:36:47.015Z,36.28
2023-02-15T00:39:30.194Z,36.92
2023-02-15T00:42:05.186Z,36.38
2023-02-15T00:44:38.744Z,41.08
2023-02-15T00:47:12.364Z,45.20
2023-02-15T00:49:45.870Z,40.05
2023-02-15T00:52:19.387Z,41.42
2023-02-15T00:54:52.836Z,42.47
2023-02-15T00:57:27.733Z,37.47
2023-02-15T01:00:01.270Z,41.60
2023-02-15T01:04:49.693Z,38.78
2023-02-15T01:07:23.203Z,40.65
2023-02-15T01:09:56.634Z,36.42
2023-02-15T01:12:30.127Z,42.83
2023-02-15T01:15:03.576Z,37.17
2023-02-15T01:17:37.211Z,38.03
2023-02-15T01:22:46.829Z,43.30
2023-02-15T01:25:21.108Z,42.88
2023-02-15T01:27:55.341Z,42.13
2023-02-15T01:30:29.025Z,49.85
2023-02-15T01:33:02.960Z,43.22
2023-02-15T01:35:40.664Z,43.00
2023-02-15T01:38:14.170Z,36.97
2023-02-15T01:40:47.594Z,44.22
2023-02-15T01:43:21.516Z,43.13
2023-02-15T01:48:30.164Z,36.20
2023-02-15T01:51:05.290Z,42.90
2023-02-15T01:53:42.984Z,37.55
2023-02-15T01:56:19.799Z,36.33
2023-02-15T01:58:59.151Z,42.30
2023-02-15T02:01:33.117Z,42.65
2023-02-15T02:06:48.909Z,36.13
2023-02-15T02:09:22.513Z,40.35
2023-02-15T02:11:56.741Z,37.17
2023-02-15T02:14:30.762Z,42.13
2023-02-15T02:17:13.069Z,39.15
2023-02-15T02:20:17.833Z,37.15
2023-02-15T02:23:26.006Z,37.55
2023-02-15T02:26:48.323Z,35.58
2023-02-15T02:29:57.989Z,38.78
2023-02-15T02:33:11.595Z,42.13
2023-02-15T02:35:54.788Z,33.58
2023-02-15T02:38:37.836Z,43.58
2023-02-15T02:41:19.992Z,34.03
2023-02-15T02:44:03.908Z,35.72
2023-02-15T02:46:46.143Z,35.75
2023-02-15T02:49:38.148Z,38.70
2023-02-15T02:52:43.221Z,37.92
2023-02-15T02:55:23.353Z,41.17
2023-02-15T02:58:00.194Z,42.08
2023-02-15T03:00:37.336Z,41.72
2023-02-15T03:03:18.950Z,40.65
2023-02-15T03:05:57.752Z,46.28
2023-02-15T03:08:38.405Z,39.67
2023-02-15T03:11:13.543Z,38.75
2023-02-15T03:13:51.132Z,39.90
2023-02-15T03:16:29.891Z,41.38
2023-02-15T03:19:08.209Z,41.83
2023-02-15T03:21:50.536Z,36.55
2023-02-15T03:24:27.486Z,39.97
2023-02-15T03:27:04.604Z,37.13
2023-02-15T03:29:39.556Z,44.63
2023-02-15T03:32:14.682Z,38.92
2023-02-15T03:34:48.461Z,42.08
2023-02-15T03:37:29.173Z,41.25
2023-02-15T03:40:27.035Z,40.25
2023-02-15T03:43:08.626Z,39.67
2023-02-15T03:45:55.864Z,35.00
2023-02-15T03:48:33.918Z,39.35
2023-02-15T03:51:29.064Z,39.13
2023-02-15T03:54:06.348Z,38.22
2023-02-15T03:56:42.434Z,43.28
2023-02-15T03:59:33.068Z,42.08
2023-02-15T04:02:17.232Z,39.90
2023-02-15T04:04:51.381Z,33.83
2023-02-15T04:07:24.777Z,36.85
2023-02-15T04:10:16.885Z,41.00
2023-02-15T04:12:50.277Z,40.75
2023-02-15T04:15:40.789Z,48.15
2023-02-15T04:18:14.258Z,41.45
2023-02-15T04:21:05.758Z,48.63
2023-02-15T04:23:56.712Z,44.42
2023-02-15T04:26:31.563Z,43.05
2023-02-15T04:29:05.070Z,41.63
2023-02-15T04:31:38.573Z,43.72
2023-02-15T04:34:12.940Z,44.33
2023-02-15T04:36:46.866Z,40.53
2023-02-15T04:41:55.511Z,44.17
2023-02-15T04:44:29.092Z,45.00
2023-02-15T04:47:02.575Z,40.53
2023-02-15T04:49:36.092Z,45.90
2023-02-15T04:52:09.553Z,45.90
2023-02-15T04:54:43.189Z,52.80
2023-02-15T04:57:18.109Z,46.90
2023-02-15T04:59:51.634Z,52.00
2023-02-15T05:02:25.161Z,50.67
2023-02-15T05:04:58.662Z,41.40
2023-02-15T05:07:32.106Z,42.05
2023-02-15T05:10:06.391Z,43.50
2023-02-15T05:12:41.201Z,48.28
2023-02-15T05:15:14.994Z,42.17
2023-02-15T05:17:48.510Z,38.42
2023-02-15T05:20:22.043Z,48.13
2023-02-15T05:22:56.669Z,51.28
2023-02-15T05:25:47.811Z,48.08
2023-02-15T05:28:23.428Z,50.20
2023-02-15T05:31:05.734Z,47.22
2023-02-15T05:33:39.897Z,47.88
2023-02-15T05:38:47.049Z,46.80
2023-02-15T05:41:20.585Z,46.65
2023-02-15T05:43:57.599Z,45.35
2023-02-15T05:46:33.676Z,44.13
2023-02-15T05:49:10.092Z,41.47
2023-02-15T05:51:45.010Z,46.85
2023-02-15T05:54:18.461Z,45.38
2023-02-15T05:56:51.867Z,44.13
2023-02-15T05:59:26.749Z,42.97
2023-02-15T06:02:00.167Z,50.15
2023-02-15T06:04:33.543Z,55.72
2023-02-15T06:07:06.927Z,56.30
2023-02-15T06:09:40.320Z,53.72
2023-02-15T06:12:13.787Z,62.72
2023-02-15T06:14:48.625Z,52.75
2023-02-15T06:17:22.795Z,49.47
2023-02-15T06:19:56.278Z,61.33
2023-02-15T06:22:29.710Z,55.78
2023-02-15T06:25:03.598Z,48.05
2023-02-15T06:30:13.850Z,50.75
2023-02-15T06:32:47.359Z,56.80
2023-02-15T06:35:20.935Z,53.63
2023-02-15T06:37:56.779Z,51.03
2023-02-15T06:40:30.305Z,54.60
2023-02-15T06:43:03.766Z,83.78
2023-02-15T06:45:38.675Z,53.90
2023-02-15T06:48:12.346Z,49.60
2023-02-15T06:50:45.845Z,54.88
2023-02-15T06:53:19.395Z,37.90
2023-02-15T06:55:52.944Z,46.60
2023-02-15T06:58:26.498Z,50.47
2023-02-15T07:01:01.451Z,52.80
2023-02-15T07:03:36.101Z,47.92
2023-02-15T07:06:11.765Z,44.97
2023-02-15T07:08:45.383Z,49.92
2023-02-15T07:11:50.787Z,55.83
2023-02-15T07:14:24.380Z,48.25
2023-02-15T07:16:59.190Z,43.63
2023-02-15T07:19:32.645Z,44.72
2023-02-15T07:22:08.466Z,52.38
2023-02-15T07:24:41.802Z,52.08
2023-02-15T07:27:15.205Z,48.45
2023-02-15T07:29:48.635Z,49.92
2023-02-15T07:32:23.559Z,53.00
2023-02-15T07:34:57.344Z,55.88
2023-02-15T07:37:30.784Z,49.90
2023-02-15T07:40:05.069Z,45.05
2023-02-15T07:42:38.500Z,40.53
2023-02-15T07:45:12.013Z,37.97
2023-02-15T07:47:46.893Z,44.20
2023-02-15T07:50:25.518Z,45.60
2023-02-15T07:53:01.520Z,42.08
2023-02-15T07:55:34.956Z,43.15
2023-02-15T07:58:08.416Z,42.72
2023-02-15T08:00:55.583Z,42.90
2023-02-15T08:03:30.520Z,44.35
2023-02-15T08:06:04.155Z,39.92
2023-02-15T08:08:38.784Z,46.47
2023-02-15T08:11:44.211Z,45.15
2023-02-15T08:14:19.391Z,42.38
2023-02-15T08:16:55.954Z,50.55
2023-02-15T08:19:33.343Z,50.33
2023-02-15T08:22:08.323Z,45.00
2023-02-15T08:24:42.256Z,41.47
2023-02-15T08:29:48.758Z,43.92
2023-02-15T08:32:22.322Z,43.72
2023-02-15T08:34:57.590Z,43.92
2023-02-15T08:37:31.000Z,50.38
2023-02-15T08:40:05.827Z,48.88
2023-02-15T08:42:39.333Z,45.90
2023-02-15T08:45:12.740Z,41.75
2023-02-15T08:47:46.626Z,41.63
2023-02-15T08:52:55.262Z,42.38
2023-02-15T08:55:29.617Z,46.20
2023-02-15T08:58:03.458Z,50.63
2023-02-15T09:03:11.077Z,47.33
2023-02-15T09:05:46.582Z,43.78
2023-02-15T09:08:21.293Z,44.97
2023-02-15T09:10:55.735Z,43.85
2023-02-15T09:13:30.634Z,44.40
2023-02-15T09:16:05.868Z,44.63
2023-02-15T09:18:41.138Z,42.88
2023-02-15T09:21:18.868Z,43.05
2023-02-15T09:23:54.447Z,44.03
2023-02-15T09:26:29.756Z,42.58
2023-02-15T09:29:04.759Z,45.15
2023-02-15T09:31:42.493Z,44.88
2023-02-15T09:34:18.739Z,43.92
2023-02-15T09:36:54.554Z,44.15
2023-02-15T09:39:29.296Z,47.25
2023-02-15T09:42:42.549Z,48.40
2023-02-15T09:45:33.163Z,47.03
2023-02-15T09:48:28.630Z,48.90
2023-02-15T09:51:19.042Z,52.13
2023-02-15T09:54:09.959Z,52.20
2023-02-15T09:56:52.536Z,47.05
2023-02-15T09:59:37.503Z,44.60
2023-02-15T10:02:27.142Z,46.67
2023-02-15T10:05:12.744Z,54.88
2023-02-15T10:08:23.841Z,49.58
2023-02-15T10:11:24.037Z,46.22
2023-02-15T10:14:14.980Z,46.30
2023-02-15T10:16:58.906Z,50.33
2023-02-15T10:19:41.982Z,52.58
2023-02-15T10:22:28.602Z,56.90
2023-02-15T10:25:18.791Z,57.60
2023-02-15T10:27:53.648Z,59.97
2023-02-15T10:30:35.329Z,58.88
2023-02-15T10:33:23.889Z,57.45
2023-02-15T10:36:06.998Z,58.13
2023-02-15T10:38:45.042Z,55.17
2023-02-15T10:41:33.556Z,61.35
2023-02-15T10:44:23.428Z,59.92
2023-02-15T10:47:12.777Z,57.72
2023-02-15T10:50:12.373Z,67.07
2023-02-15T10:52:59.298Z,67.10
2023-02-15T10:55:47.793Z,61.58
2023-02-15T10:58:32.029Z,69.78
2023-02-15T11:01:16.006Z,66.40
2023-02-15T11:04:12.588Z,79.68
2023-02-15T11:06:52.441Z,66.93
2023-02-15T11:09:31.780Z,71.88
2023-02-15T11:12:10.285Z,68.18
2023-02-15T11:14:50.579Z,62.75
2023-02-15T11:17:30.567Z,61.40
2023-02-15T11:20:10.734Z,70.13
2023-02-15T11:22:44.227Z,62.80
2023-02-15T11:25:21.647Z,62.67
2023-02-15T11:27:57.842Z,61.67
2023-02-15T11:30:45.952Z,56.83
2023-02-15T11:33:25.223Z,53.92
2023-02-15T11:36:06.285Z,52.60
2023-02-15T11:38:44.459Z,54.22
2023-02-15T11:41:21.426Z,50.30
2023-02-15T11:44:00.649Z,49.95
2023-02-15T11:46:34.485Z,53.22
2023-02-15T11:51:58.149Z,44.03
2023-02-15T11:54:34.337Z,41.05
2023-02-15T11:57:17.310Z,41.05
2023-02-15T11:59:55.872Z,42.92
2023-02-15T12:02:31.262Z,44.33
2023-02-15T12:05:12.012Z,56.50
2023-02-15T12:07:49.212Z,44.00
2023-02-15T12:10:26.015Z,45.05
2023-02-15T12:13:13.237Z,39.60
2023-02-15T12:15:49.953Z,42.17
2023-02-15T12:18:38.948Z,43.33
2023-02-15T12:21:17.616Z,41.40
2023-02-15T12:23:54.158Z,41.60
2023-02-15T12:26:29.389Z,40.75
2023-02-15T12:29:08.970Z,46.50
2023-02-15T12:31:46.099Z,40.22
2023-02-15T12:34:24.795Z,34.92
2023-02-15T12:37:03.311Z,39.42
2023-02-15T12:39:36.952Z,39.45
2023-02-15T12:42:20.444Z,43.92
2023-02-15T12:45:00.071Z,39.53
2023-02-15T12:47:34.191Z,47.75
2023-02-15T12:50:18.045Z,45.40
2023-02-15T12:53:07.829Z,51.25
2023-02-15T12:55:45.376Z,48.20
2023-02-15T12:58:20.904Z,52.50
2023-02-15T13:01:14.193Z,45.30
2023-02-15T13:03:59.959Z,46.13
2023-02-15T13:06:37.752Z,50.60
2023-02-15T13:09:18.530Z,44.80
2023-02-15T13:11:52.107Z,47.40
2023-02-15T13:14:34.585Z,46.40
2023-02-15T13:17:08.986Z,41.25
2023-02-15T13:19:45.504Z,44.63
2023-02-15T13:22:24.132Z,47.42
2023-02-15T13:25:03.971Z,46.33
2023-02-15T13:27:42.380Z,40.38
2023-02-15T13:30:37.653Z,35.33
2023-02-15T13:33:18.887Z,39.97
2023-02-15T13:36:01.809Z,34.38
2023-02-15T13:38:52.958Z,41.70
2023-02-15T13:41:36.425Z,38.35
2023-02-15T13:44:23.146Z,40.65
2023-02-15T13:47:14.136Z,44.88
2023-02-15T13:50:02.784Z,38.58
2023-02-15T13:52:42.785Z,44.22
2023-02-15T13:55:39.979Z,41.15
2023-02-15T13:58:55.207Z,37.08
2023-02-15T14:04:27.897Z,30.77
2023-02-15T14:07:17.235Z,35.30
2023-02-15T14:10:02.806Z,37.97
2023-02-15T14:12:56.107Z,44.58
2023-02-15T14:15:37.962Z,74.20
2023-02-15T14:18:26.670Z,36.28
2023-02-15T14:21:08.614Z,37.35
2023-02-15T14:23:56.456Z,37.35
2023-02-15T14:26:47.500Z,36.30
2023-02-15T14:29:31.856Z,38.03
2023-02-15T14:32:12.978Z,42.17
2023-02-15T14:34:54.198Z,45.22
2023-02-15T14:37:45.660Z,47.25
2023-02-15T14:40:47.152Z,43.42
2023-02-15T14:43:33.386Z,39.50
2023-02-15T14:46:14.351Z,41.78
2023-02-15T14:48:50.695Z,44.45
2023-02-15T14:52:03.121Z,43.00
2023-02-15T14:55:01.173Z,41.28
2023-02-15T14:57:37.268Z,41.22
2023-02-15T15:00:40.414Z,42.65
2023-02-15T15:03:23.747Z,44.03
2023-02-15T15:06:02.727Z,52.20
2023-02-15T15:08:42.410Z,44.33
2023-02-15T15:11:44.151Z,49.55
2023-02-15T15:14:39.906Z,44.10
2023-02-15T15:17:16.094Z,50.20
2023-02-15T15:20:14.779Z,47.38
2023-02-15T15:22:49.095Z,43.50
2023-02-15T15:25:47.177Z,44.85
2023-02-15T15:28:57.203Z,47.88
2023-02-15T15:31:53.163Z,53.28
2023-02-15T15:35:02.410Z,50.45
2023-02-15T15:38:01.783Z,58.00
2023-02-15T15:41:14.960Z,53.83
2023-02-15T15:44:14.017Z,65.53
2023-02-15T15:47:10.520Z,69.95
2023-02-15T15:49:44.326Z,48.97
2023-02-15T15:52:21.373Z,52.33
2023-02-15T15:54:59.079Z,55.50
2023-02-15T15:57:37.328Z,65.95
2023-02-15T16:00:33.188Z,57.35
2023-02-15T16:03:07.440Z,58.35
2023-02-15T16:05:42.042Z,57.13
2023-02-15T16:08:16.816Z,54.35
2023-02-15T16:10:50.732Z,59.08
2023-02-15T16:16:00.758Z,53.53
2023-02-15T16:18:37.453Z,61.83
2023-02-15T16:21:19.879Z,57.85
2023-02-15T16:24:10.003Z,53.35
2023-02-15T16:27:08.963Z,60.83
2023-02-15T16:29:45.080Z,53.20
2023-02-15T16:32:22.111Z,62.05
2023-02-15T16:34:58.223Z,50.85
2023-02-15T16:37:39.316Z,49.90
2023-02-15T16:40:31.779Z,57.53
2023-02-15T16:43:12.626Z,66.03
2023-02-15T16:45:48.941Z,63.42
2023-02-15T16:48:27.094Z,56.45
2023-02-15T16:51:05.027Z,56.42
2023-02-15T16:53:40.174Z,68.95
2023-02-15T16:56:15.090Z,68.70
2023-02-15T16:58:53.718Z,62.05
2023-02-15T17:01:32.330Z,61.10
2023-02-15T17:04:26.913Z,60.55
2023-02-15T17:07:02.961Z,56.35
2023-02-15T17:09:39.587Z,47.08
2023-02-15T17:12:13.646Z,52.10
2023-02-15T17:14:47.684Z,51.40
